TimeEDT,TemperatureF,Dew PointF,Humidity,Sea Level PressureIn,VisibilityMPH,Wind Direction,Wind SpeedMPH,Gust SpeedMPH,PrecipitationIn,Events,Conditions,WindDirDegrees,DateUTC
12:15 AM,73.4,71.6,94,30.07,10.0,Calm,Calm,-,N/A,,Clear,0,2013-08-01 04:15:00
12:35 AM,73.4,69.8,88,30.06,10.0,Calm,Calm,-,N/A,,Clear,0,2013-08-01 04:35:00
12:55 AM,73.4,69.8,88,30.04,10.0,Calm,Calm,-,N/A,,Clear,0,2013-08-01 04:55:00
1:15 AM,73.4,69.8,88,30.03,10.0,Calm,Calm,-,N/A,,Clear,0,2013-08-01 05:15:00
1:35 AM,73.4,69.8,88,30.03,10.0,Calm,Calm,-,N/A,,Clear,0,2013-08-01 05:35:00
1:55 AM,71.6,69.8,94,30.02,10.0,Calm,Calm,-,N/A,,Clear,0,2013-08-01 05:55:00
2:15 AM,71.6,69.8,94,30.02,10.0,East,3.5,-,N/A,,Clear,80,2013-08-01 06:15:00
2:35 AM,73.4,69.8,88,30.02,10.0,Calm,Calm,-,N/A,,Clear,0,2013-08-01 06:35:00
2:55 AM,73.4,69.8,88,30.01,10.0,Calm,Calm,-,N/A,,Clear,0,2013-08-01 06:55:00
3:15 AM,71.6,69.8,94,30.00,10.0,Calm,Calm,-,N/A,,Clear,0,2013-08-01 07:15:00
3:35 AM,71.6,69.8,94,30.00,10.0,Calm,Calm,-,N/A,,Clear,0,2013-08-01 07:35:00
3:55 AM,71.6,69.8,94,29.99,10.0,Calm,Calm,-,N/A,,Clear,0,2013-08-01 07:55:00
4:15 AM,71.6,69.8,94,29.99,10.0,Calm,Calm,-,N/A,,Clear,0,2013-08-01 08:15:00
4:35 AM,71.6,69.8,94,29.99,10.0,Calm,Calm,-,N/A,,Clear,0,2013-08-01 08:35:00
4:55 AM,73.4,69.8,88,29.99,10.0,Calm,Calm,-,N/A,,Clear,0,2013-08-01 08:55:00
5:15 AM,73.4,69.8,88,29.99,10.0,Calm,Calm,-,N/A,,Clear,0,2013-08-01 09:15:00
5:35 AM,73.4,69.8,88,30.00,10.0,Calm,Calm,-,N/A,,Clear,0,2013-08-01 09:35:00
5:55 AM,73.4,69.8,88,30.00,10.0,Calm,Calm,-,N/A,,Clear,0,2013-08-01 09:55:00
6:15 AM,73.4,69.8,88,30.01,10.0,Calm,Calm,-,N/A,,Clear,0,2013-08-01 10:15:00
6:35 AM,71.6,69.8,94,30.01,10.0,Calm,Calm,-,N/A,,Clear,0,2013-08-01 10:35:00
6:55 AM,73.4,69.8,88,30.01,10.0,Calm,Calm,-,N/A,,Clear,0,2013-08-01 10:55:00
7:15 AM,73.4,71.6,94,30.02,10.0,Calm,Calm,-,N/A,,Clear,0,2013-08-01 11:15:00
7:35 AM,73.4,69.8,88,30.02,10.0,Calm,Calm,-,N/A,,Clear,0,2013-08-01 11:35:00
7:55 AM,73.4,71.6,94,30.02,10.0,Calm,Calm,-,N/A,,Clear,0,2013-08-01 11:55:00
8:15 AM,73.4,71.6,94,30.03,10.0,Calm,Calm,-,N/A,,Clear,0,2013-08-01 12:15:00
8:35 AM,77.0,71.6,83,30.03,10.0,Calm,Calm,-,N/A,,Clear,0,2013-08-01 12:35:00
8:55 AM,78.8,71.6,78,30.03,10.0,Calm,Calm,-,N/A,,Clear,0,2013-08-01 12:55:00
9:15 AM,80.6,71.6,74,30.02,10.0,Calm,Calm,-,N/A,,Clear,0,2013-08-01 13:15:00
9:35 AM,80.6,71.6,74,30.03,10.0,South,3.5,-,N/A,,Clear,190,2013-08-01 13:35:00
9:55 AM,82.4,73.4,74,30.04,10.0,South,3.5,-,N/A,,Clear,180,2013-08-01 13:55:00
10:15 AM,82.4,73.4,74,30.04,10.0,Calm,Calm,-,N/A,,Clear,0,2013-08-01 14:15:00
10:35 AM,84.2,73.4,70,30.05,10.0,Calm,Calm,-,N/A,,Clear,0,2013-08-01 14:35:00
10:55 AM,86.0,73.4,66,30.05,10.0,SW,3.5,-,N/A,,Clear,230,2013-08-01 14:55:00
11:15 AM,86.0,73.4,66,30.04,10.0,WSW,4.6,-,N/A,,Scattered Clouds,240,2013-08-01 15:15:00
11:35 AM,86.0,71.6,62,30.03,10.0,WSW,3.5,-,N/A,,Mostly Cloudy,250,2013-08-01 15:35:00
11:55 AM,86.0,73.4,66,30.03,10.0,West,5.8,-,N/A,,Overcast,260,2013-08-01 15:55:00
12:15 PM,86.0,71.6,62,30.02,10.0,SW,3.5,-,N/A,,Mostly Cloudy,220,2013-08-01 16:15:00
12:35 PM,87.8,71.6,58,30.01,10.0,West,5.8,-,N/A,,Mostly Cloudy,260,2013-08-01 16:35:00
12:55 PM,87.8,73.4,62,30.01,10.0,West,8.1,-,N/A,,Mostly Cloudy,260,2013-08-01 16:55:00
1:15 PM,87.8,71.6,58,30.01,10.0,West,10.4,-,N/A,Thunderstorm,Mostly Cloudy,270,2013-08-01 17:15:00
1:35 PM,87.8,71.6,58,30.00,10.0,West,8.1,-,N/A,Thunderstorm,Scattered Clouds,260,2013-08-01 17:35:00
1:55 PM,87.8,73.4,62,30.00,10.0,WSW,6.9,-,N/A,Thunderstorm,Thunderstorm,250,2013-08-01 17:55:00
2:15 PM,84.2,69.8,62,30.01,10.0,SE,8.1,-,N/A,Thunderstorm,Thunderstorm,130,2013-08-01 18:15:00
2:35 PM,80.6,71.6,74,30.00,10.0,East,8.1,-,N/A,Thunderstorm,Thunderstorm,80,2013-08-01 18:35:00
2:55 PM,80.6,71.6,74,30.01,7.0,ENE,4.6,-,N/A,Rain-Thunderstorm,Light Thunderstorms and Rain,70,2013-08-01 18:55:00
3:15 PM,80.6,71.6,74,30.01,10.0,NNE,8.1,-,N/A,Thunderstorm,Thunderstorm,30,2013-08-01 19:15:00
3:35 PM,80.6,71.6,74,30.01,10.0,ENE,4.6,-,N/A,,Scattered Clouds,70,2013-08-01 19:35:00
3:55 PM,80.6,71.6,74,30.00,10.0,Calm,Calm,-,N/A,,Scattered Clouds,0,2013-08-01 19:55:00
4:15 PM,82.4,71.6,70,29.99,10.0,NE,3.5,-,N/A,,Scattered Clouds,50,2013-08-01 20:15:00
4:35 PM,82.4,71.6,70,29.98,10.0,Calm,Calm,-,N/A,Thunderstorm,Clear,0,2013-08-01 20:35:00
4:55 PM,86.0,71.6,62,29.98,10.0,Calm,Calm,-,N/A,,Clear,0,2013-08-01 20:55:00
5:15 PM,86.0,71.6,62,29.97,10.0,Calm,Calm,-,N/A,,Scattered Clouds,0,2013-08-01 21:15:00
5:35 PM,86.0,71.6,62,29.97,10.0,West,6.9,-,N/A,Thunderstorm,Thunderstorm,260,2013-08-01 21:35:00
5:55 PM,86.0,69.8,58,29.98,10.0,Calm,Calm,-,N/A,,Clear,0,2013-08-01 21:55:00
6:15 PM,86.0,71.6,62,29.99,10.0,Calm,Calm,-,N/A,,Scattered Clouds,0,2013-08-01 22:15:00
6:35 PM,86.0,71.6,62,29.99,10.0,Calm,Calm,-,N/A,,Scattered Clouds,0,2013-08-01 22:35:00
6:55 PM,86.0,71.6,62,29.98,10.0,Calm,Calm,-,N/A,Thunderstorm,Clear,0,2013-08-01 22:55:00
7:15 PM,84.2,71.6,66,29.98,10.0,Calm,Calm,-,N/A,,Clear,0,2013-08-01 23:15:00
7:35 PM,82.4,73.4,74,29.98,10.0,ENE,3.5,-,N/A,,Clear,70,2013-08-01 23:35:00
7:55 PM,80.6,77.0,89,29.98,10.0,ENE,5.8,-,N/A,,Clear,70,2013-08-01 23:55:00
8:15 PM,80.6,77.0,89,29.98,10.0,ENE,3.5,-,N/A,,Clear,60,2013-08-02 00:15:00
8:35 PM,78.8,73.4,83,29.99,10.0,ENE,3.5,-,N/A,,Clear,60,2013-08-02 00:35:00
8:55 PM,78.8,73.4,83,30.00,10.0,East,5.8,-,N/A,,Clear,80,2013-08-02 00:55:00
9:15 PM,78.8,73.4,83,29.99,10.0,Calm,Calm,-,N/A,,Clear,0,2013-08-02 01:15:00
9:35 PM,78.8,73.4,83,30.00,10.0,Calm,Calm,-,N/A,,Clear,0,2013-08-02 01:35:00
9:55 PM,78.8,73.4,83,30.00,10.0,Calm,Calm,-,N/A,,Clear,0,2013-08-02 01:55:00
10:15 PM,77.0,73.4,89,30.00,10.0,Calm,Calm,-,N/A,,Clear,0,2013-08-02 02:15:00
10:35 PM,77.0,73.4,89,30.01,10.0,Calm,Calm,-,N/A,,Clear,0,2013-08-02 02:35:00
10:55 PM,77.0,71.6,83,30.01,10.0,Calm,Calm,-,N/A,,Clear,0,2013-08-02 02:55:00
11:15 PM,77.0,71.6,83,30.01,10.0,Calm,Calm,-,N/A,,Clear,0,2013-08-02 03:15:00
11:35 PM,77.0,71.6,83,30.00,10.0,Calm,Calm,-,N/A,,Clear,0,2013-08-02 03:35:00
11:55 PM,77.0,71.6,83,30.00,10.0,Calm,Calm,-,N/A,,Clear,0,2013-08-02 03:55:00